createdAt,value
2018-12-08T00:01:08.324Z,6.90
2018-12-08T00:03:36.688Z,7.00
2018-12-08T00:06:05.004Z,7.00
2018-12-08T00:08:33.324Z,7.00
2018-12-08T00:11:01.643Z,7.00
2018-12-08T00:13:30.075Z,7.00
2018-12-08T00:15:58.400Z,6.90
2018-12-08T00:18:26.841Z,6.90
2018-12-08T00:20:55.219Z,7.00
2018-12-08T00:23:23.542Z,7.00
2018-12-08T00:25:51.867Z,7.00
2018-12-08T00:28:20.212Z,7.00
2018-12-08T00:30:59.816Z,7.00
2018-12-08T00:33:28.184Z,6.90
2018-12-08T00:35:56.555Z,7.00
2018-12-08T00:38:24.896Z,6.90
2018-12-08T00:40:53.263Z,6.90
2018-12-08T00:43:21.615Z,6.90
2018-12-08T00:45:50.075Z,6.90
2018-12-08T00:48:18.413Z,6.90
2018-12-08T00:50:46.753Z,6.90
2018-12-08T00:53:15.128Z,6.90
2018-12-08T00:55:43.459Z,6.90
2018-12-08T00:58:11.807Z,6.90
2018-12-08T01:00:40.150Z,6.90
2018-12-08T01:03:08.616Z,6.90
2018-12-08T01:05:36.962Z,6.80
2018-12-08T01:08:05.323Z,6.80
2018-12-08T01:10:33.657Z,6.80
2018-12-08T01:13:02.092Z,6.80
2018-12-08T01:15:30.446Z,6.80
2018-12-08T01:17:58.776Z,6.80
2018-12-08T01:20:27.252Z,6.80
2018-12-08T01:22:55.585Z,6.80
2018-12-08T01:25:24.030Z,6.70
2018-12-08T01:27:52.351Z,6.70
2018-12-08T01:30:20.683Z,6.70
2018-12-08T01:32:49.033Z,6.70
2018-12-08T01:35:17.362Z,6.70
2018-12-08T01:37:45.712Z,6.60
2018-12-08T01:40:14.060Z,6.50
2018-12-08T01:42:44.411Z,6.50
2018-12-08T01:45:12.877Z,6.40
2018-12-08T01:47:41.323Z,6.40
2018-12-08T01:50:09.662Z,6.30
2018-12-08T01:52:38.015Z,6.20
2018-12-08T01:55:06.435Z,6.20
2018-12-08T01:57:34.779Z,6.20
2018-12-08T02:00:03.269Z,6.20
2018-12-08T02:02:31.717Z,6.20
2018-12-08T02:05:00.193Z,6.20
2018-12-08T02:07:28.537Z,6.20
2018-12-08T02:09:56.985Z,6.20
2018-12-08T02:12:25.398Z,6.20
2018-12-08T02:14:53.758Z,6.30
2018-12-08T02:17:22.098Z,6.30
2018-12-08T02:19:50.466Z,6.30
2018-12-08T02:22:18.933Z,6.30
2018-12-08T02:24:47.290Z,6.30
2018-12-08T02:27:15.666Z,6.30
2018-12-08T02:29:44.023Z,6.30
2018-12-08T02:32:12.392Z,6.30
2018-12-08T02:34:40.778Z,6.30
2018-12-08T02:37:09.251Z,6.40
2018-12-08T02:39:37.634Z,6.30
2018-12-08T02:42:05.999Z,6.30
2018-12-08T02:44:34.354Z,6.30
2018-12-08T02:47:02.672Z,6.30
2018-12-08T02:49:31.016Z,6.30
2018-12-08T02:51:59.630Z,6.30
2018-12-08T02:54:28.069Z,6.30
2018-12-08T02:56:56.728Z,6.30
2018-12-08T02:59:25.157Z,6.30
2018-12-08T03:01:53.533Z,6.30
2018-12-08T03:04:21.873Z,6.30
2018-12-08T03:06:50.234Z,6.30
2018-12-08T03:09:18.592Z,6.30
2018-12-08T03:11:46.971Z,6.30
2018-12-08T03:14:15.323Z,6.30
2018-12-08T03:16:43.658Z,6.30
2018-12-08T03:19:12.009Z,6.30
2018-12-08T03:21:40.307Z,6.30
2018-12-08T03:24:08.679Z,6.30
2018-12-08T03:26:36.998Z,6.30
2018-12-08T03:29:05.350Z,6.30
2018-12-08T03:31:33.810Z,6.30
2018-12-08T03:34:02.235Z,6.20
2018-12-08T03:36:30.573Z,6.20
2018-12-08T03:38:58.896Z,6.10
2018-12-08T03:41:27.233Z,6.10
2018-12-08T03:43:55.550Z,6.00
2018-12-08T03:46:23.881Z,6.00
2018-12-08T03:48:52.207Z,6.00
2018-12-08T03:51:20.536Z,6.00
2018-12-08T03:53:48.888Z,6.00
2018-12-08T03:56:17.343Z,5.90
2018-12-08T03:58:45.693Z,6.00
2018-12-08T04:01:14.128Z,6.00
2018-12-08T04:03:42.476Z,6.00
2018-12-08T04:06:10.800Z,6.00
2018-12-08T04:08:39.171Z,6.00
2018-12-08T04:11:07.515Z,6.00
2018-12-08T04:13:35.874Z,6.00
2018-12-08T04:16:04.300Z,6.00
2018-12-08T04:18:32.666Z,6.10
2018-12-08T04:21:01.099Z,6.10
2018-12-08T04:23:29.406Z,6.10
2018-12-08T04:25:57.758Z,6.10
2018-12-08T04:28:26.087Z,6.10
2018-12-08T04:30:54.419Z,6.10
2018-12-08T04:33:22.730Z,6.10
2018-12-08T04:35:51.067Z,6.10
2018-12-08T04:38:19.360Z,6.20
2018-12-08T04:40:47.699Z,6.20
2018-12-08T04:43:16.028Z,6.20
2018-12-08T04:45:44.370Z,6.20
2018-12-08T04:48:12.733Z,6.30
2018-12-08T04:50:41.080Z,6.20
2018-12-08T04:53:09.412Z,6.30
2018-12-08T04:55:37.730Z,6.30
2018-12-08T04:58:06.074Z,6.30
2018-12-08T05:00:34.422Z,6.30
2018-12-08T05:03:02.770Z,6.30
2018-12-08T05:05:31.086Z,6.30
2018-12-08T05:07:59.410Z,6.30
2018-12-08T05:10:27.750Z,6.30
2018-12-08T05:12:56.062Z,6.30
2018-12-08T05:15:24.389Z,6.30
2018-12-08T05:17:52.760Z,6.30
2018-12-08T05:20:21.110Z,6.20
2018-12-08T05:22:49.440Z,6.10
2018-12-08T05:25:17.787Z,6.10
2018-12-08T05:27:46.138Z,6.00
2018-12-08T05:30:14.502Z,6.00
2018-12-08T05:32:42.891Z,6.00
2018-12-08T05:35:11.251Z,5.90
2018-12-08T05:37:39.608Z,5.90
2018-12-08T05:40:08.156Z,5.90
2018-12-08T05:42:36.482Z,5.90
2018-12-08T05:45:04.965Z,5.90
2018-12-08T05:47:33.294Z,6.00
2018-12-08T05:50:01.649Z,6.00
2018-12-08T05:52:29.962Z,6.10
2018-12-08T05:54:58.327Z,6.20
2018-12-08T05:57:26.662Z,6.20
2018-12-08T05:59:55.017Z,6.20
2018-12-08T06:02:23.348Z,6.20
2018-12-08T06:04:51.675Z,6.30
2018-12-08T06:07:20.007Z,6.30
2018-12-08T06:09:48.346Z,6.30
2018-12-08T06:12:16.780Z,6.20
2018-12-08T06:14:45.087Z,6.20
2018-12-08T06:17:13.482Z,6.10
2018-12-08T06:19:41.867Z,6.10
2018-12-08T06:22:10.187Z,6.10
2018-12-08T06:24:38.736Z,6.00
2018-12-08T06:28:02.378Z,6.00
2018-12-08T06:30:30.709Z,6.00
2018-12-08T06:32:59.043Z,6.00
2018-12-08T06:35:27.358Z,5.90
2018-12-08T06:37:55.861Z,5.90
2018-12-08T06:40:29.196Z,5.90
2018-12-08T06:42:54.578Z,5.90
2018-12-08T06:45:23.004Z,5.80
2018-12-08T06:47:51.337Z,5.90
2018-12-08T06:52:54.245Z,5.90
2018-12-08T06:55:22.784Z,5.90
2018-12-08T06:57:51.118Z,5.90
2018-12-08T07:00:19.461Z,5.90
2018-12-08T07:02:47.885Z,5.90
2018-12-08T07:05:16.241Z,5.90
2018-12-08T07:07:44.607Z,5.80
2018-12-08T07:10:13.078Z,5.80
2018-12-08T07:12:41.477Z,5.70
2018-12-08T07:15:09.909Z,5.70
2018-12-08T07:17:38.293Z,5.70
2018-12-08T07:20:07.309Z,5.60
2018-12-08T07:22:35.776Z,5.60
2018-12-08T07:25:04.515Z,5.60
2018-12-08T07:27:32.860Z,5.60
2018-12-08T07:30:01.232Z,5.60
2018-12-08T07:32:29.585Z,5.60
2018-12-08T07:34:57.915Z,5.60
2018-12-08T07:37:26.263Z,5.60
2018-12-08T07:39:54.619Z,5.70
2018-12-08T07:42:22.960Z,5.70
2018-12-08T07:44:51.304Z,5.80
2018-12-08T07:47:19.655Z,5.80
2018-12-08T07:49:48.033Z,5.80
2018-12-08T07:52:16.416Z,5.80
2018-12-08T07:54:44.844Z,5.80
2018-12-08T07:57:13.196Z,5.80
2018-12-08T07:59:41.574Z,5.90
2018-12-08T08:02:10.039Z,5.80
2018-12-08T08:04:38.499Z,5.80
2018-12-08T08:07:06.888Z,5.80
2018-12-08T08:09:35.256Z,5.70
2018-12-08T08:12:04.658Z,5.80
2018-12-08T08:14:39.729Z,5.80
2018-12-08T08:17:08.337Z,5.90
2018-12-08T08:19:36.711Z,5.80
2018-12-08T08:22:05.044Z,5.80
2018-12-08T08:24:33.380Z,5.90
2018-12-08T08:27:01.738Z,5.90
2018-12-08T08:29:30.114Z,5.90
2018-12-08T08:31:58.599Z,5.90
2018-12-08T08:34:26.970Z,5.90
2018-12-08T08:36:55.325Z,5.90
2018-12-08T08:39:23.971Z,5.90
2018-12-08T08:41:52.316Z,6.00
2018-12-08T08:44:20.665Z,6.00
2018-12-08T08:46:49.049Z,5.90
2018-12-08T08:49:17.395Z,5.90
2018-12-08T08:51:45.751Z,5.90
2018-12-08T08:54:14.183Z,6.00
2018-12-08T08:56:42.640Z,6.00
2018-12-08T08:59:11.012Z,6.00
2018-12-08T09:01:39.401Z,5.90
2018-12-08T09:04:07.800Z,5.90
2018-12-08T09:06:36.154Z,6.00
2018-12-08T09:09:06.419Z,6.00
2018-12-08T09:11:34.862Z,6.00
2018-12-08T09:14:03.387Z,6.00
2018-12-08T09:16:31.950Z,6.00
2018-12-08T09:19:00.295Z,6.10
2018-12-08T09:21:28.668Z,6.20
2018-12-08T09:23:57.009Z,6.30
2018-12-08T09:26:25.386Z,6.30
2018-12-08T09:28:53.792Z,6.30
2018-12-08T09:31:22.171Z,6.40
2018-12-08T09:33:50.528Z,6.40
2018-12-08T09:36:18.899Z,6.40
2018-12-08T09:38:47.263Z,6.50
2018-12-08T09:41:15.632Z,6.40
2018-12-08T09:43:43.978Z,6.40
2018-12-08T09:46:12.325Z,6.40
2018-12-08T09:48:40.670Z,6.40
2018-12-08T09:51:09.076Z,6.40
2018-12-08T09:53:37.443Z,6.40
2018-12-08T09:56:05.841Z,6.40
2018-12-08T09:58:34.252Z,6.40
2018-12-08T10:01:02.599Z,6.50
2018-12-08T10:03:30.948Z,6.50
2018-12-08T10:05:59.287Z,6.50
2018-12-08T10:08:27.635Z,6.40
2018-12-08T10:10:55.979Z,6.40
2018-12-08T10:13:24.330Z,6.50
2018-12-08T10:15:52.681Z,6.50
2018-12-08T10:18:21.074Z,6.40
2018-12-08T10:20:49.393Z,6.50
2018-12-08T10:23:26.176Z,6.50
2018-12-08T10:25:54.530Z,6.50
2018-12-08T10:28:23.023Z,6.50
2018-12-08T10:30:51.373Z,6.50
2018-12-08T10:33:19.738Z,6.50
2018-12-08T10:35:48.234Z,6.50
2018-12-08T10:38:16.712Z,6.50
2018-12-08T10:40:45.180Z,6.60
2018-12-08T10:43:13.528Z,6.60
2018-12-08T10:45:41.885Z,6.60
2018-12-08T10:48:10.261Z,6.60
2018-12-08T10:50:38.630Z,6.60
2018-12-08T10:53:07.021Z,6.60
2018-12-08T10:55:35.376Z,6.60
2018-12-08T10:58:03.767Z,6.70
2018-12-08T11:00:37.382Z,6.70
2018-12-08T11:03:11.050Z,6.70
2018-12-08T11:05:39.448Z,6.70
2018-12-08T11:08:07.842Z,6.70
2018-12-08T11:10:36.233Z,6.70
2018-12-08T11:13:04.746Z,6.80
2018-12-08T11:15:33.106Z,6.80
2018-12-08T11:18:02.450Z,6.90
2018-12-08T11:20:31.453Z,6.90
2018-12-08T11:22:59.922Z,7.00
2018-12-08T11:25:28.333Z,7.00
2018-12-08T11:27:56.644Z,7.00
2018-12-08T11:30:25.112Z,7.00
2018-12-08T11:32:53.489Z,7.10
2018-12-08T11:35:21.814Z,7.10
2018-12-08T11:37:50.321Z,7.10
2018-12-08T11:40:19.092Z,7.10
2018-12-08T11:42:47.478Z,7.10
2018-12-08T11:45:15.945Z,7.10
2018-12-08T11:47:44.297Z,7.00
2018-12-08T11:50:12.768Z,7.00
2018-12-08T11:52:41.116Z,6.90
2018-12-08T11:55:09.586Z,6.90
2018-12-08T11:57:38.015Z,6.90
2018-12-08T12:00:08.230Z,6.90
2018-12-08T12:02:36.729Z,6.90
2018-12-08T12:05:05.935Z,6.90
2018-12-08T12:07:34.287Z,7.00
2018-12-08T12:10:02.634Z,6.90
2018-12-08T12:12:30.995Z,6.90
2018-12-08T12:14:59.373Z,6.90
2018-12-08T12:17:27.747Z,7.00
2018-12-08T12:19:56.090Z,7.00
2018-12-08T12:22:24.514Z,7.00
2018-12-08T12:24:52.928Z,7.00
2018-12-08T12:27:21.566Z,6.90
2018-12-08T12:29:49.950Z,6.90
2018-12-08T12:32:18.343Z,7.00
2018-12-08T12:34:46.705Z,7.00
2018-12-08T12:37:15.133Z,7.00
2018-12-08T12:39:43.459Z,7.10
2018-12-08T12:42:11.796Z,7.10
2018-12-08T12:44:40.181Z,7.10
2018-12-08T12:47:08.525Z,7.20
2018-12-08T12:49:37.142Z,7.20
2018-12-08T12:52:05.688Z,7.20
2018-12-08T12:54:34.052Z,7.20
2018-12-08T12:57:02.394Z,7.20
2018-12-08T12:59:30.745Z,7.30
2018-12-08T13:01:59.465Z,7.30
2018-12-08T13:04:27.796Z,7.30
2018-12-08T13:06:56.146Z,7.30
2018-12-08T13:09:24.505Z,7.40
2018-12-08T13:11:53.602Z,7.40
2018-12-08T13:14:22.002Z,7.40
2018-12-08T13:16:50.386Z,7.50
2018-12-08T13:19:18.789Z,7.60
2018-12-08T13:21:47.150Z,7.60
2018-12-08T13:24:15.660Z,7.70
2018-12-08T13:26:44.216Z,7.70
2018-12-08T13:29:12.568Z,7.70
2018-12-08T13:31:40.957Z,7.80
2018-12-08T13:34:20.540Z,7.70
2018-12-08T13:36:48.895Z,7.80
2018-12-08T13:39:17.309Z,7.80
2018-12-08T13:41:45.685Z,7.80
2018-12-08T13:44:24.120Z,7.90
2018-12-08T13:46:52.676Z,7.90
2018-12-08T13:49:21.043Z,7.80
2018-12-08T13:51:49.427Z,7.80
2018-12-08T13:54:28.962Z,7.80
2018-12-08T13:56:57.374Z,7.80
2018-12-08T13:59:25.731Z,7.80
2018-12-08T14:01:54.426Z,7.80
2018-12-08T14:04:22.765Z,7.80
2018-12-08T14:06:51.110Z,7.90
2018-12-08T14:09:19.485Z,7.90
2018-12-08T14:11:47.852Z,7.80
2018-12-08T14:14:16.227Z,7.80
2018-12-08T14:16:44.639Z,7.80
2018-12-08T14:19:13.066Z,7.80
2018-12-08T14:21:41.513Z,7.80
2018-12-08T14:24:09.873Z,7.80
2018-12-08T14:26:38.262Z,7.80
2018-12-08T14:29:06.681Z,7.70
2018-12-08T14:31:35.548Z,7.60
2018-12-08T14:34:04.045Z,7.50
2018-12-08T14:36:32.439Z,7.50
2018-12-08T14:39:00.803Z,7.50
2018-12-08T14:41:29.215Z,7.50
2018-12-08T14:43:57.571Z,7.50
2018-12-08T14:46:26.074Z,7.50
2018-12-08T14:48:54.479Z,7.60
2018-12-08T14:51:22.835Z,7.60
2018-12-08T14:53:51.269Z,7.60
2018-12-08T14:56:19.692Z,7.60
2018-12-08T14:58:48.059Z,7.70
2018-12-08T15:01:16.400Z,7.70
2018-12-08T15:03:44.821Z,7.70
2018-12-08T15:06:13.182Z,7.70
2018-12-08T15:08:41.688Z,7.70
2018-12-08T15:11:10.112Z,7.70
2018-12-08T15:13:38.529Z,7.80
2018-12-08T15:16:06.952Z,7.70
2018-12-08T15:18:35.553Z,7.60
2018-12-08T15:21:04.147Z,7.60
2018-12-08T15:23:32.583Z,7.60
2018-12-08T15:26:01.005Z,7.50
2018-12-08T15:28:29.414Z,7.40
2018-12-08T15:30:57.823Z,7.40
2018-12-08T15:33:27.275Z,7.40
2018-12-08T15:35:55.811Z,7.30
2018-12-08T15:38:24.253Z,7.40
2018-12-08T15:40:52.745Z,7.40
2018-12-08T15:43:21.133Z,7.40
2018-12-08T15:45:49.688Z,7.30
2018-12-08T15:48:18.151Z,7.30
2018-12-08T15:50:46.497Z,7.30
2018-12-08T15:53:15.149Z,7.30
2018-12-08T15:55:43.570Z,7.30
2018-12-08T15:58:12.074Z,7.30
2018-12-08T16:00:40.417Z,7.40
2018-12-08T16:03:08.807Z,7.40
2018-12-08T16:05:37.311Z,7.40
2018-12-08T16:08:05.687Z,7.40
2018-12-08T16:10:34.117Z,7.40
2018-12-08T16:13:02.468Z,7.40
2018-12-08T16:15:30.845Z,7.40
2018-12-08T16:17:59.225Z,7.40
2018-12-08T16:20:27.627Z,7.40
2018-12-08T16:22:55.953Z,7.40
2018-12-08T16:25:24.313Z,7.50
2018-12-08T16:27:52.725Z,7.50
2018-12-08T16:30:21.333Z,7.50
2018-12-08T16:32:49.709Z,7.50
2018-12-08T16:35:18.065Z,7.50
2018-12-08T16:37:46.440Z,7.50
2018-12-08T16:40:14.778Z,7.50
2018-12-08T16:42:43.121Z,7.50
2018-12-08T16:45:11.624Z,7.50
2018-12-08T16:47:40.079Z,7.50
2018-12-08T16:50:09.669Z,7.50
2018-12-08T16:52:38.143Z,7.50
2018-12-08T16:55:06.933Z,7.50
2018-12-08T16:57:35.395Z,7.50
2018-12-08T17:00:04.460Z,7.50
2018-12-08T17:02:32.809Z,7.50
2018-12-08T17:05:01.147Z,7.50
2018-12-08T17:07:29.572Z,7.50
2018-12-08T17:09:58.167Z,7.40
2018-12-08T17:12:26.528Z,7.50
2018-12-08T17:14:54.912Z,7.40
2018-12-08T17:17:23.283Z,7.40
2018-12-08T17:19:51.681Z,7.40
2018-12-08T17:22:20.037Z,7.30
2018-12-08T17:24:49.916Z,7.30
2018-12-08T17:27:18.273Z,7.30
2018-12-08T17:29:46.646Z,7.30
2018-12-08T17:32:14.973Z,7.30
2018-12-08T17:34:43.453Z,7.30
2018-12-08T17:37:11.831Z,7.30
2018-12-08T17:39:40.269Z,7.30
2018-12-08T17:42:08.619Z,7.30
2018-12-08T17:44:37.118Z,7.30
2018-12-08T17:47:05.610Z,7.30
2018-12-08T17:49:34.002Z,7.40
2018-12-08T17:52:02.546Z,7.40
2018-12-08T17:54:30.955Z,7.40
2018-12-08T17:56:59.465Z,7.40
2018-12-08T17:59:27.861Z,7.40
2018-12-08T18:01:56.259Z,7.40
2018-12-08T18:04:24.615Z,7.40
2018-12-08T18:06:53.018Z,7.40
2018-12-08T18:09:21.393Z,7.40
2018-12-08T18:11:49.883Z,7.40
2018-12-08T18:14:18.715Z,7.40
2018-12-08T18:16:47.218Z,7.40
2018-12-08T18:19:15.598Z,7.40
2018-12-08T18:21:44.011Z,7.40
2018-12-08T18:24:12.475Z,7.30
2018-12-08T18:26:42.520Z,7.40
2018-12-08T18:29:11.084Z,7.40
2018-12-08T18:31:39.459Z,7.40
2018-12-08T18:34:07.840Z,7.40
2018-12-08T18:36:36.190Z,7.40
2018-12-08T18:39:06.674Z,7.40
2018-12-08T18:41:35.017Z,7.40
2018-12-08T18:44:03.394Z,7.50
2018-12-08T18:46:31.780Z,7.50
2018-12-08T18:49:00.187Z,7.50
2018-12-08T18:51:28.573Z,7.50
2018-12-08T18:53:56.979Z,7.50
2018-12-08T18:56:25.340Z,7.50
2018-12-08T18:58:53.671Z,7.50
2018-12-08T19:01:22.061Z,7.50
2018-12-08T19:03:50.423Z,7.40
2018-12-08T19:06:18.880Z,7.50
2018-12-08T19:08:47.241Z,7.50
2018-12-08T19:11:15.658Z,7.50
2018-12-08T19:13:44.039Z,7.60
2018-12-08T19:16:12.464Z,7.60
2018-12-08T19:18:40.832Z,7.60
2018-12-08T19:21:09.169Z,7.60
2018-12-08T19:23:43.602Z,7.60
2018-12-08T19:26:07.891Z,7.70
2018-12-08T19:28:36.261Z,7.70
2018-12-08T19:31:06.256Z,7.70
2018-12-08T19:33:35.015Z,7.70
2018-12-08T19:36:03.399Z,7.70
2018-12-08T19:38:31.741Z,7.80
2018-12-08T19:41:00.098Z,7.80
2018-12-08T19:43:28.747Z,7.80
2018-12-08T19:45:57.085Z,7.80
2018-12-08T19:48:25.512Z,7.80
2018-12-08T19:50:53.871Z,7.80
2018-12-08T19:53:22.344Z,7.80
2018-12-08T19:55:50.707Z,7.80
2018-12-08T19:58:19.057Z,7.90
2018-12-08T20:00:47.443Z,7.90
2018-12-08T20:03:15.896Z,7.80
2018-12-08T20:05:44.279Z,7.90
2018-12-08T20:08:12.616Z,7.90
2018-12-08T20:10:40.981Z,7.90
2018-12-08T20:13:09.311Z,8.00
2018-12-08T20:15:37.692Z,8.00
2018-12-08T20:18:06.130Z,8.00
2018-12-08T20:20:34.489Z,8.00
2018-12-08T20:23:02.839Z,8.10
2018-12-08T20:25:31.195Z,8.00
2018-12-08T20:27:59.530Z,8.10
2018-12-08T20:30:27.918Z,8.10
2018-12-08T20:32:56.299Z,8.20
2018-12-08T20:35:24.637Z,8.20
2018-12-08T20:37:53.017Z,8.20
2018-12-08T20:40:21.404Z,8.20
2018-12-08T20:42:51.035Z,8.20
2018-12-08T20:45:19.395Z,8.20
2018-12-08T20:47:47.877Z,8.20
2018-12-08T20:50:16.271Z,8.20
2018-12-08T20:52:44.632Z,8.20
2018-12-08T20:55:12.962Z,8.20
2018-12-08T20:57:41.338Z,8.20
2018-12-08T21:00:09.861Z,8.20
2018-12-08T21:02:38.197Z,8.20
2018-12-08T21:05:06.661Z,8.20
2018-12-08T21:07:35.006Z,8.30
2018-12-08T21:10:03.516Z,8.30
2018-12-08T21:12:31.883Z,8.30
2018-12-08T21:15:00.241Z,8.30
2018-12-08T21:17:28.592Z,8.30
2018-12-08T21:19:57.049Z,8.30
2018-12-08T21:22:25.488Z,8.30
2018-12-08T21:24:53.901Z,8.30
2018-12-08T21:27:22.336Z,8.30
2018-12-08T21:29:50.662Z,8.30
2018-12-08T21:32:18.997Z,8.30
2018-12-08T21:34:48.274Z,8.30
2018-12-08T21:37:16.618Z,8.30
2018-12-08T21:39:44.961Z,8.30
2018-12-08T21:42:13.292Z,8.30
2018-12-08T21:44:41.656Z,8.30
2018-12-08T21:47:09.992Z,8.30
2018-12-08T21:49:38.349Z,8.40
2018-12-08T21:52:06.785Z,8.40
2018-12-08T21:54:35.147Z,8.40
2018-12-08T21:57:03.624Z,8.40
2018-12-08T21:59:31.982Z,8.40
2018-12-08T22:02:00.524Z,8.40
2018-12-08T22:04:28.838Z,8.40
2018-12-08T22:06:57.378Z,8.50
2018-12-08T22:09:25.811Z,8.60
2018-12-08T22:11:54.271Z,8.60
2018-12-08T22:14:22.730Z,8.50
2018-12-08T22:16:51.050Z,8.50
2018-12-08T22:19:19.393Z,8.50
2018-12-08T22:21:47.724Z,8.60
2018-12-08T22:24:16.089Z,8.60
2018-12-08T22:26:44.463Z,8.60
2018-12-08T22:29:12.807Z,8.60
2018-12-08T22:31:41.157Z,8.60
2018-12-08T22:34:09.487Z,8.60
2018-12-08T22:36:37.824Z,8.70
2018-12-08T22:39:07.531Z,8.70
2018-12-08T22:41:35.856Z,8.90
2018-12-08T22:44:04.286Z,8.90
2018-12-08T22:46:32.775Z,9.10
2018-12-08T22:49:01.120Z,9.20
2018-12-08T22:51:29.497Z,9.40
2018-12-08T22:53:57.841Z,9.40
2018-12-08T22:56:26.176Z,9.40
2018-12-08T22:58:54.537Z,9.50
2018-12-08T23:01:23.097Z,9.50
2018-12-08T23:03:51.478Z,9.60
2018-12-08T23:06:19.837Z,9.70
2018-12-08T23:08:48.205Z,9.70
2018-12-08T23:11:16.521Z,9.80
2018-12-08T23:13:44.873Z,9.80
2018-12-08T23:16:13.393Z,9.90
2018-12-08T23:18:41.790Z,10.00
2018-12-08T23:21:10.216Z,9.90
2018-12-08T23:23:38.567Z,10.00
2018-12-08T23:26:06.919Z,10.00
2018-12-08T23:28:35.375Z,10.00
2018-12-08T23:31:03.871Z,10.00
2018-12-08T23:33:32.225Z,10.10
2018-12-08T23:36:00.567Z,10.10
2018-12-08T23:38:28.953Z,10.00
2018-12-08T23:40:57.309Z,10.10
2018-12-08T23:43:25.691Z,10.10
2018-12-08T23:45:54.009Z,10.10
2018-12-08T23:48:22.446Z,10.00
2018-12-08T23:50:50.905Z,9.90
2018-12-08T23:53:19.359Z,10.00
2018-12-08T23:55:47.726Z,10.10
2018-12-08T23:58:16.053Z,10.10
